Bethlehem, GA (30620)

7:54 PM EST on March 05, 2015 (GMT -0500)
N4TAW Rivermill | Change Station
CLOSE
Current Station
Personal Weather Station
Location: Bethlehem, GA
Elevation: 827 ft
Nearby Weather Stations
Active Advisory: Special Statement

Elev 827 ft 33.92 °N, 83.78 °W | Updated 3 minutes ago

Overcast
Overcast
36.1 °F
Feels Like 36 °F
N
2.0
Wind Variable Wind from West
Gusts 8.0 mph

Today
High -- | Low -- °F
--% Chance of Precip.
Yesterday
High -- | Low -- °F
Precip. -- in
6:58 AM 6:34 PM
Full, 100% visible
Pressure 30.21 in
Visibility 10.0 miles
Clouds Clear
Windchill 36 °F
Dew Point 33 °F
Humidity 89%
Rainfall in
Snow Depth Not available.
UV 0.0 out of 12
Pollen 5.10 out of 12
Air Quality Not available.
Flu Activity Not available.
METAR KWDR 060035Z AUTO 31009KT 10SM CLR 04/02 A3021 RMK AO1

More Conditions Fewer Conditions

Pressure 30.21 in
Visibility 10.0 miles
Clouds Clear
Windchill 36 °F
Dew Point 33 °F
Humidity 89%
Rainfall in
Snow Depth Not available.
UV 0.0 out of 12
Pollen 5.10 out of 12
Air Quality Not available.
Flu Activity Not available.
METAR KWDR 060035Z AUTO 31009KT 10SM CLR 04/02 A3021 RMK AO1

More Conditions Fewer Conditions

10-Day Weather Forecast

Almanac

Astronomy

Mar. 05, 2015 Rise Set
Actual Time
Civil Twilight
Nautical Twilight
Astronomical Twilight
Moon
Length of Visible Light
Length of Day
Tomorrow will be .
, % of the Moon is Illuminated

Today's Extremes

State Highs State Lows

Community

WunderPhotos

Upload Photos

1,803,076 photos uploaded!

WunderBlogs® & News

Nearby

Air Quality

  Air Quality AQ Index Pollutant
Not available.

Snow Depth

Station Depth Elevation

Earthquake Activity

City Distance Mag. Time & Date
Minimum magnitude displayed is 2.5.

Coastal Water Temperatures

Place Temperature

Nearby Weather Stations

Special Statement
Statement as of 2:56 PM EST on March 05, 2015

... Patchy black ice likely across north and much of central
Georgia tonight...

As a very cold air mass continues to spread in over the state
this evening and overnight... temperatures will fall at or below
freezing for most areas. This coupled with wet grounds from
widespread rains will result in patches of black ice... resulting
in slick spots on area roads and bridges. The main black ice
threat tonight will be generally along and north of a Columbus to
Macon to Warrenton line... and through Friday morning.

People traveling across north and much of central Georgia
tonight and Friday morning should use extra caution and be
prepared for slick spots on roads.